Time;durP1;ratioP1;P1;durP2;ratioP2;P2;SDS_P1;SDS_P2;PMS_P1;PMS_P2;Temp;Humidity;BMP_temperature;BMP_pressure;BME280_temperature;BME280_humidity;BME280_pressure;Samples;Min_cycle;Max_cycle;Signal;HPM_P1;HPM_P2
2024/03/29 01:43:50;;;;;;;1.40;1.05;;;11.40;99.90;;;;;;4935515;29;20239;-71
2024/03/29 01:46:19;;;;;;;1.65;1.20;;;11.40;99.90;;;;;;4954392;28;20232;-71
2024/03/29 01:48:46;;;;;;;1.95;1.33;;;11.30;99.90;;;;;;4945005;28;20233;-72
2024/03/29 01:51:15;;;;;;;2.40;1.38;;;11.30;99.90;;;;;;4936748;29;20313;-72
2024/03/29 01:53:42;;;;;;;1.40;1.25;;;11.20;99.90;;;;;;4936646;29;20232;-71
2024/03/29 01:56:11;;;;;;;2.15;1.30;;;11.20;99.90;;;;;;4936764;29;20251;-72
2024/03/29 01:58:39;;;;;;;2.92;1.60;;;11.20;99.90;;;;;;4936130;29;20235;-72
2024/03/29 02:01:08;;;;;;;1.58;1.30;;;11.20;99.90;;;;;;4936499;29;20678;-73
2024/03/29 02:03:35;;;;;;;2.33;1.50;;;11.20;99.90;;;;;;4940620;28;20232;-72
2024/03/29 02:06:03;;;;;;;3.05;1.42;;;11.20;99.90;;;;;;4974299;28;20235;-73
2024/03/29 02:08:30;;;;;;;1.30;1.20;;;11.20;99.90;;;;;;4973975;28;20238;-72
2024/03/29 02:10:58;;;;;;;4.03;2.75;;;11.20;99.90;;;;;;4973582;28;20227;-72
2024/03/29 02:13:26;;;;;;;2.83;1.65;;;11.20;99.90;;;;;;4974194;28;20227;-73
2024/03/29 02:15:53;;;;;;;3.28;1.00;;;11.20;99.90;;;;;;4973686;28;20227;-71
2024/03/29 02:18:20;;;;;;;2.30;1.80;;;11.20;99.90;;;;;;4974060;28;20542;-73
2024/03/29 02:20:47;;;;;;;2.13;1.27;;;11.20;99.90;;;;;;4973630;28;20231;-72
2024/03/29 02:23:20;;;;;;;1.77;1.67;;;11.20;99.90;;;;;;4974260;28;20315;-72
2024/03/29 02:25:48;;;;;;;2.47;2.03;;;11.20;99.90;;;;;;4973447;28;20231;-72
2024/03/29 02:28:15;;;;;;;4.43;2.47;;;11.20;99.90;;;;;;4973793;28;20240;-72
2024/03/29 02:30:42;;;;;;;3.63;1.98;;;11.20;99.90;;;;;;4973423;28;20231;-73
2024/03/29 02:33:09;;;;;;;1.55;1.45;;;11.30;99.90;;;;;;4973706;28;20223;-73
2024/03/29 02:35:36;;;;;;;2.70;2.47;;;11.30;99.90;;;;;;4973369;28;20238;-73
2024/03/29 02:38:03;;;;;;;2.05;1.70;;;11.30;99.90;;;;;;4973972;28;20310;-73
2024/03/29 02:40:30;;;;;;;2.78;1.95;;;11.30;99.90;;;;;;4973525;28;20558;-73
2024/03/29 02:42:58;;;;;;;2.17;1.77;;;11.30;99.90;;;;;;4973321;28;20223;-72
2024/03/29 02:45:25;;;;;;;2.65;1.63;;;11.30;99.90;;;;;;4973838;28;20246;-73
2024/03/29 02:47:52;;;;;;;2.22;1.52;;;11.40;99.90;;;;;;4972968;28;20234;-73
2024/03/29 02:50:18;;;;;;;1.60;1.40;;;11.40;99.90;;;;;;4973585;28;20223;-72
2024/03/29 02:52:45;;;;;;;1.95;1.77;;;11.40;99.90;;;;;;4973353;28;20229;-72
2024/03/29 02:55:11;;;;;;;3.83;1.83;;;11.50;99.90;;;;;;4973668;28;20682;-72
2024/03/29 02:57:39;;;;;;;6.90;3.23;;;11.50;99.90;;;;;;4973155;28;20223;-72
2024/03/29 03:00:09;;;;;;;3.15;2.17;;;11.50;99.90;;;;;;4973410;28;20778;-71
2024/03/29 03:02:39;;;;;;;2.72;1.75;;;11.50;99.90;;;;;;4973464;28;20227;-71
2024/03/29 03:05:06;;;;;;;3.10;2.60;;;11.40;99.90;;;;;;4928533;28;1315240;-72
2024/03/29 03:13:02;;;;;;;3.97;2.10;;;11.40;99.90;;;;;;4991214;28;20695;-72
2024/03/29 03:15:30;;;;;;;2.72;2.00;;;11.30;99.90;;;;;;4977980;28;21181;-72
2024/03/29 03:17:57;;;;;;;2.40;1.70;;;11.30;99.90;;;;;;4976036;28;20227;-73
2024/03/29 03:20:27;;;;;;;2.55;2.35;;;11.20;99.90;;;;;;4994336;28;20226;-72
2024/03/29 03:22:55;;;;;;;2.10;1.90;;;11.20;99.90;;;;;;4997562;28;20547;-73
2024/03/29 03:25:21;;;;;;;2.13;2.03;;;11.20;99.90;;;;;;4997046;28;20242;-72
2024/03/29 03:27:48;;;;;;;2.30;1.90;;;11.20;99.90;;;;;;4997469;28;20627;-72
2024/03/29 03:30:15;;;;;;;4.95;2.20;;;11.20;99.90;;;;;;4996762;28;20469;-71
2024/03/29 03:32:46;;;;;;;2.28;2.15;;;11.20;99.90;;;;;;4997388;28;20241;-72
2024/03/29 03:35:12;;;;;;;2.50;2.30;;;11.20;99.90;;;;;;4996818;28;20309;-72
2024/03/29 03:37:39;;;;;;;3.43;2.00;;;11.10;99.90;;;;;;4997495;28;20313;-72
2024/03/29 03:40:07;;;;;;;2.40;2.10;;;11.10;99.90;;;;;;4989056;28;20471;-72
2024/03/29 03:42:34;;;;;;;2.67;2.00;;;11.00;99.90;;;;;;4977731;28;20219;-71
2024/03/29 03:45:00;;;;;;;4.18;2.45;;;11.00;99.90;;;;;;4985177;28;20353;-72
2024/03/29 03:47:26;;;;;;;2.00;1.80;;;11.00;99.90;;;;;;4996685;28;20727;-73
2024/03/29 03:49:54;;;;;;;3.75;2.20;;;11.00;99.90;;;;;;4996931;28;20473;-73
2024/03/29 03:52:21;;;;;;;2.80;2.10;;;11.00;99.90;;;;;;4996516;28;20231;-73
2024/03/29 03:54:49;;;;;;;4.05;2.30;;;10.90;99.90;;;;;;4986078;28;20226;-73
2024/03/29 03:57:16;;;;;;;3.90;2.20;;;11.00;99.90;;;;;;4996343;28;20226;-73
2024/03/29 03:59:42;;;;;;;2.08;1.60;;;11.00;99.90;;;;;;4996320;28;20346;-72
2024/03/29 04:02:09;;;;;;;2.05;1.73;;;11.00;99.90;;;;;;4992341;28;20222;-72
2024/03/29 04:04:35;;;;;;;3.42;2.28;;;11.00;99.90;;;;;;4996397;28;20734;-73
2024/03/29 04:07:04;;;;;;;2.30;1.77;;;11.00;99.90;;;;;;4996809;28;20227;-73
2024/03/29 04:09:30;;;;;;;2.15;1.95;;;11.00;99.90;;;;;;4996153;28;20787;-72
2024/03/29 04:11:57;;;;;;;2.13;1.80;;;10.90;99.90;;;;;;4988381;28;20224;-73
2024/03/29 04:14:22;;;;;;;3.03;2.15;;;10.90;99.90;;;;;;4976440;28;20471;-72
2024/03/29 04:16:50;;;;;;;5.17;2.90;;;10.80;99.90;;;;;;4977056;28;20670;-72
2024/03/29 04:19:16;;;;;;;2.60;2.40;;;10.80;99.90;;;;;;4976649;28;20470;-73
2024/03/29 04:21:42;;;;;;;2.30;2.10;;;10.80;99.90;;;;;;4976906;28;20612;-73
2024/03/29 04:24:10;;;;;;;3.75;2.40;;;10.80;99.90;;;;;;4976400;28;20471;-73
2024/03/29 04:26:38;;;;;;;5.00;3.00;;;10.80;99.90;;;;;;4976857;28;20227;-72
2024/03/29 04:29:04;;;;;;;3.10;2.42;;;10.70;99.90;;;;;;4976872;28;20564;-73
2024/03/29 04:31:31;;;;;;;2.50;1.87;;;10.70;99.90;;;;;;4975975;28;20230;-72
2024/03/29 04:33:57;;;;;;;1.98;1.80;;;10.70;99.90;;;;;;4976739;28;20485;-73
2024/03/29 04:36:24;;;;;;;2.40;1.67;;;10.70;99.90;;;;;;4976156;28;20310;-72
2024/03/29 04:38:51;;;;;;;1.98;1.55;;;10.60;99.90;;;;;;4976791;28;20995;-72
2024/03/29 04:41:19;;;;;;;2.28;1.75;;;10.60;99.90;;;;;;4976250;28;20227;-72
2024/03/29 04:43:45;;;;;;;1.60;1.35;;;10.50;99.90;;;;;;4976654;28;20227;-73
2024/03/29 04:46:13;;;;;;;3.03;1.60;;;10.50;99.90;;;;;;4993129;28;20336;-72
2024/03/29 04:48:47;;;;;;;2.13;1.50;;;10.50;99.90;;;;;;4996044;28;20477;-72
2024/03/29 04:51:14;;;;;;;1.60;1.50;;;10.60;99.90;;;;;;4995446;28;20225;-72
2024/03/29 04:53:41;;;;;;;4.07;2.67;;;10.60;99.90;;;;;;4995685;28;20226;-73
2024/03/29 04:56:08;;;;;;;1.95;1.50;;;10.60;99.90;;;;;;4992923;28;20684;-72
2024/03/29 04:58:36;;;;;;;4.65;2.97;;;10.60;99.90;;;;;;4993307;28;20223;-73
2024/03/29 05:01:04;;;;;;;1.90;1.60;;;10.60;99.90;;;;;;4994141;28;20219;-73
2024/03/29 05:03:30;;;;;;;1.95;1.58;;;10.60;99.90;;;;;;4994045;28;20227;-72
2024/03/29 05:05:58;;;;;;;2.70;2.33;;;10.60;99.90;;;;;;4976025;28;20238;-72
2024/03/29 05:08:23;;;;;;;2.67;1.60;;;10.60;99.90;;;;;;4975678;28;20232;-73
2024/03/29 05:10:51;;;;;;;3.73;1.40;;;10.60;99.90;;;;;;4976320;28;20223;-72
2024/03/29 05:13:18;;;;;;;3.08;1.63;;;10.60;99.90;;;;;;4975607;28;20818;-73
2024/03/29 05:15:48;;;;;;;1.50;1.40;;;10.60;99.90;;;;;;4975954;28;20233;-73
2024/03/29 05:18:15;;;;;;;2.10;1.50;;;10.60;99.90;;;;;;4975610;28;20231;-73
2024/03/29 05:20:46;;;;;;;3.67;1.65;;;10.60;99.90;;;;;;4976005;28;20219;-72
2024/03/29 05:23:14;;;;;;;4.05;1.70;;;10.60;99.90;;;;;;4975408;28;20234;-72
2024/03/29 05:25:41;;;;;;;2.40;1.52;;;10.60;99.90;;;;;;4975875;28;20238;-72
2024/03/29 05:28:08;;;;;;;3.22;1.50;;;10.50;99.90;;;;;;4975721;28;20686;-73
2024/03/29 05:30:35;;;;;;;3.10;1.65;;;10.50;99.90;;;;;;4975381;28;20223;-71
2024/03/29 05:33:04;;;;;;;1.80;1.20;;;10.60;99.90;;;;;;4975744;28;20231;-73
2024/03/29 05:35:31;;;;;;;2.15;1.52;;;10.60;99.90;;;;;;4975149;28;20231;-73
2024/03/29 05:37:58;;;;;;;2.08;1.30;;;10.60;99.90;;;;;;4975468;28;20235;-72
2024/03/29 05:40:27;;;;;;;1.40;1.10;;;10.60;99.90;;;;;;4975326;28;20231;-73
2024/03/29 05:42:54;;;;;;;3.10;1.35;;;10.70;99.90;;;;;;4974973;28;20229;-73
2024/03/29 05:45:25;;;;;;;1.20;1.10;;;10.70;99.90;;;;;;4974653;28;20688;-71
2024/03/29 05:47:52;;;;;;;2.50;1.40;;;10.80;99.90;;;;;;4975715;28;20265;-72
2024/03/29 05:50:21;;;;;;;1.85;1.35;;;10.80;99.90;;;;;;4975043;28;20590;-72
2024/03/29 05:52:48;;;;;;;2.13;1.00;;;10.80;99.90;;;;;;4975312;28;20677;-71
2024/03/29 05:55:15;;;;;;;1.30;1.20;;;10.80;99.90;;;;;;4975276;28;20219;-72
2024/03/29 05:57:44;;;;;;;1.50;1.08;;;10.80;99.90;;;;;;4974973;28;20231;-72
2024/03/29 06:00:13;;;;;;;2.00;1.20;;;10.80;99.90;;;;;;4975174;28;20303;-72
2024/03/29 06:02:41;;;;;;;2.83;1.58;;;10.80;99.90;;;;;;4974887;28;20286;-72
2024/03/29 06:05:08;;;;;;;2.17;1.58;;;10.80;99.90;;;;;;4945714;28;20221;-72
2024/03/29 06:07:37;;;;;;;2.05;1.80;;;10.90;99.90;;;;;;4936252;29;20229;-72
2024/03/29 06:10:05;;;;;;;2.33;1.50;;;10.90;99.90;;;;;;4936731;29;20220;-72
2024/03/29 06:12:33;;;;;;;4.07;1.50;;;10.90;99.90;;;;;;4936169;29;20288;-72
2024/03/29 06:17:45;;;;;;;1.40;1.15;;;11.00;99.90;;;;;;4936243;29;20292;-72
2024/03/29 06:20:12;;;;;;;4.50;1.40;;;10.90;99.90;;;;;;4936633;29;20275;-71
2024/03/29 06:22:40;;;;;;;1.92;1.65;;;10.90;99.90;;;;;;4935861;29;20236;-73
2024/03/29 06:25:09;;;;;;;3.50;1.65;;;10.90;99.90;;;;;;4936395;29;20239;-72
2024/03/29 06:27:37;;;;;;;1.38;1.27;;;10.90;99.90;;;;;;4936050;29;20257;-72
2024/03/29 06:30:08;;;;;;;4.18;1.30;;;10.90;99.90;;;;;;4936389;29;20232;-72
2024/03/29 06:32:35;;;;;;;1.40;1.10;;;11.00;99.90;;;;;;4936030;29;20232;-72
2024/03/29 06:35:02;;;;;;;3.38;1.25;;;11.00;99.90;;;;;;4936390;29;20221;-73
2024/03/29 06:37:29;;;;;;;2.03;1.38;;;11.10;99.90;;;;;;4935731;29;20340;-72
2024/03/29 06:39:58;;;;;;;2.88;1.73;;;11.10;99.90;;;;;;4936293;29;20561;-72
2024/03/29 06:42:25;;;;;;;2.10;1.23;;;11.10;99.90;;;;;;4935756;29;20228;-72
2024/03/29 06:44:54;;;;;;;3.00;1.27;;;11.20;99.90;;;;;;4936027;29;20596;-72
2024/03/29 06:47:21;;;;;;;2.58;1.17;;;11.20;99.90;;;;;;4936072;29;20284;-72
2024/03/29 06:49:48;;;;;;;1.63;1.13;;;11.20;99.90;;;;;;4936095;29;20228;-72
2024/03/29 06:52:15;;;;;;;1.88;1.50;;;11.20;99.90;;;;;;4936598;29;20229;-72
2024/03/29 06:54:42;;;;;;;3.10;1.25;;;11.30;99.90;;;;;;4934968;29;20232;-72
2024/03/29 06:57:14;;;;;;;2.72;1.40;;;11.40;99.90;;;;;;4936227;29;20229;-72
2024/03/29 06:59:41;;;;;;;1.83;1.63;;;11.40;99.90;;;;;;4935629;29;20312;-72
2024/03/29 07:02:09;;;;;;;1.13;1.00;;;11.50;99.90;;;;;;4936312;29;20674;-72
2024/03/29 07:04:36;;;;;;;2.60;1.30;;;11.50;99.90;;;;;;4956503;28;20232;-72
2024/03/29 07:07:09;;;;;;;2.22;1.40;;;11.50;99.90;;;;;;4974271;28;20235;-72
2024/03/29 07:09:36;;;;;;;2.10;1.27;;;11.50;99.90;;;;;;4974023;28;20227;-73
2024/03/29 07:12:04;;;;;;;1.63;1.00;;;11.60;99.90;;;;;;4974301;28;20232;-72
2024/03/29 07:14:33;;;;;;;2.25;1.30;;;11.60;99.90;;;;;;4973623;28;20248;-73
2024/03/29 07:17:00;;;;;;;1.70;1.40;;;11.70;99.70;;;;;;4974188;28;20231;-73
2024/03/29 07:19:27;;;;;;;2.10;1.30;;;11.80;99.80;;;;;;4973978;28;20231;-72
2024/03/29 07:21:54;;;;;;;11.70;9.80;;;11.80;99.80;;;;;;4974163;28;20227;-72
2024/03/29 07:24:21;;;;;;;2.13;1.00;;;12.00;99.80;;;;;;4974211;28;20241;-72
2024/03/29 07:26:48;;;;;;;2.30;1.15;;;12.00;99.90;;;;;;4973890;28;20227;-72
2024/03/29 07:29:15;;;;;;;2.35;1.50;;;12.10;99.30;;;;;;4974177;28;20564;-72
2024/03/29 07:31:44;;;;;;;4.18;2.88;;;12.00;99.00;;;;;;4973762;28;20681;-72
2024/03/29 07:34:11;;;;;;;5.15;4.32;;;12.10;99.10;;;;;;4974019;28;20239;-72
2024/03/29 07:36:40;;;;;;;5.43;4.90;;;12.20;99.20;;;;;;4973699;28;20228;-72
2024/03/29 07:39:07;;;;;;;4.82;2.97;;;12.20;98.80;;;;;;4974148;28;20234;-71
2024/03/29 07:41:40;;;;;;;6.25;4.90;;;12.20;98.80;;;;;;4973526;28;20234;-71
2024/03/29 07:44:08;;;;;;;9.10;7.50;;;12.30;98.60;;;;;;4974001;28;20239;-71
2024/03/29 07:46:37;;;;;;;4.80;4.30;;;12.30;98.90;;;;;;4973322;28;20271;-72
2024/03/29 07:49:06;;;;;;;4.25;2.67;;;12.40;98.70;;;;;;4974240;28;20285;-72
2024/03/29 07:51:33;;;;;;;5.05;2.13;;;12.40;98.60;;;;;;4973435;28;20232;-72
2024/03/29 07:54:00;;;;;;;2.47;2.28;;;12.40;98.40;;;;;;4973857;28;20231;-72
2024/03/29 07:56:26;;;;;;;4.40;2.28;;;12.40;98.30;;;;;;4973873;28;20238;-72
2024/03/29 07:58:54;;;;;;;2.03;1.77;;;12.50;98.30;;;;;;4973607;28;20242;-72
2024/03/29 08:01:21;;;;;;;4.35;3.40;;;12.50;98.40;;;;;;4973988;28;20227;-72
2024/03/29 08:03:51;;;;;;;3.25;2.30;;;12.50;98.30;;;;;;4973231;28;20232;-72
2024/03/29 08:06:19;;;;;;;1.80;1.70;;;12.60;98.40;;;;;;4974677;28;20235;-72
2024/03/29 08:08:47;;;;;;;3.42;2.83;;;12.70;98.40;;;;;;4976870;28;20227;-72
2024/03/29 08:11:13;;;;;;;3.83;3.35;;;12.80;98.60;;;;;;4977246;28;20227;-72
2024/03/29 08:13:41;;;;;;;1.73;1.63;;;12.90;98.70;;;;;;4976479;28;20231;-73
2024/03/29 08:16:09;;;;;;;1.50;1.40;;;12.90;98.40;;;;;;4977113;28;20223;-72
2024/03/29 08:18:36;;;;;;;1.80;1.42;;;13.00;97.90;;;;;;4976562;28;20308;-72
2024/03/29 08:21:03;;;;;;;1.40;1.20;;;12.90;98.10;;;;;;4977145;28;20697;-72
2024/03/29 08:23:32;;;;;;;3.08;1.80;;;13.00;98.40;;;;;;4977234;28;20227;-72
2024/03/29 08:25:59;;;;;;;3.13;1.17;;;13.10;98.90;;;;;;4976173;28;20232;-73
2024/03/29 08:28:26;;;;;;;3.42;2.40;;;13.10;99.60;;;;;;4976784;28;20227;-72
2024/03/29 08:30:59;;;;;;;2.55;1.75;;;13.10;99.90;;;;;;4976647;28;20224;-72
2024/03/29 08:33:26;;;;;;;1.60;1.15;;;13.20;99.90;;;;;;4976744;28;20220;-72
2024/03/29 08:35:54;;;;;;;2.90;1.35;;;13.30;99.90;;;;;;4976525;28;20219;-72
2024/03/29 08:38:21;;;;;;;2.70;1.90;;;13.30;99.90;;;;;;4976897;28;20234;-72
2024/03/29 08:40:49;;;;;;;2.28;1.60;;;13.40;99.90;;;;;;4976331;28;20351;-73
2024/03/29 08:43:17;;;;;;;1.98;1.50;;;13.50;99.90;;;;;;4976794;28;20234;-71
2024/03/29 08:45:44;;;;;;;4.18;1.75;;;13.50;99.90;;;;;;4976104;28;20314;-71
2024/03/29 08:48:11;;;;;;;2.10;1.55;;;13.60;99.90;;;;;;4976647;28;20227;-72
2024/03/29 08:50:38;;;;;;;3.70;1.75;;;13.60;99.90;;;;;;4976018;28;20223;-71
2024/03/29 08:53:06;;;;;;;4.18;1.98;;;13.70;99.90;;;;;;4977194;28;20614;-72
2024/03/29 08:55:34;;;;;;;1.50;1.37;;;13.70;99.90;;;;;;4976283;28;20228;-72
2024/03/29 08:58:02;;;;;;;1.45;1.20;;;13.80;99.90;;;;;;4975813;28;20473;-73
2024/03/29 09:00:32;;;;;;;1.73;1.30;;;13.80;99.90;;;;;;4976336;28;20224;-73
2024/03/29 09:05:40;;;;;;;4.80;3.53;;;14.00;99.90;;;;;;4962596;28;20285;-73
2024/03/29 09:08:07;;;;;;;3.40;2.87;;;14.00;99.90;;;;;;4976354;28;20471;-72
2024/03/29 09:10:34;;;;;;;2.65;2.38;;;14.10;99.90;;;;;;4976590;28;20813;-72
2024/03/29 09:13:03;;;;;;;2.63;1.63;;;14.10;99.90;;;;;;4975658;28;20427;-73
2024/03/29 09:15:33;;;;;;;2.03;1.60;;;14.20;99.90;;;;;;4975805;28;20478;-72
2024/03/29 09:18:06;;;;;;;3.27;1.80;;;14.30;99.90;;;;;;4974625;28;20459;-72
2024/03/29 09:20:33;;;;;;;1.47;1.33;;;14.40;99.40;;;;;;4976064;28;20471;-72
2024/03/29 09:23:00;;;;;;;2.83;1.23;;;14.40;99.00;;;;;;4975413;28;20462;-72
2024/03/29 09:25:27;;;;;;;4.33;1.23;;;14.50;98.90;;;;;;4976045;28;20478;-73
2024/03/29 09:27:54;;;;;;;1.40;1.10;;;14.50;98.70;;;;;;4975093;28;20486;-73
2024/03/29 09:30:22;;;;;;;5.83;1.63;;;14.60;98.20;;;;;;4975755;28;20785;-73
2024/03/29 09:32:50;;;;;;;2.40;1.60;;;14.60;98.00;;;;;;4975354;28;20483;-72
2024/03/29 09:35:19;;;;;;;2.93;1.50;;;14.60;98.10;;;;;;4975378;28;20811;-72
2024/03/29 09:37:49;;;;;;;2.47;1.80;;;14.60;98.10;;;;;;4975011;28;20541;-74
2024/03/29 09:40:17;;;;;;;1.47;1.30;;;14.60;97.90;;;;;;4975703;28;20466;-72
2024/03/29 09:42:46;;;;;;;5.50;1.40;;;14.60;97.60;;;;;;4975089;28;20467;-73
2024/03/29 09:45:13;;;;;;;3.67;1.20;;;14.60;97.50;;;;;;4974946;28;20471;-72
2024/03/29 09:47:43;;;;;;;1.80;1.27;;;14.60;97.60;;;;;;4974990;28;20863;-73
2024/03/29 09:50:12;;;;;;;5.77;3.83;;;14.70;97.40;;;;;;4975170;28;20482;-73
2024/03/29 09:52:41;;;;;;;2.50;1.67;;;14.70;97.50;;;;;;4975233;28;20482;-73
2024/03/29 09:55:08;;;;;;;1.50;1.33;;;14.80;97.60;;;;;;4974078;28;20776;-73
2024/03/29 09:57:36;;;;;;;2.27;1.20;;;14.90;96.70;;;;;;4974859;28;20485;-73
2024/03/29 10:00:04;;;;;;;2.40;1.90;;;14.90;96.70;;;;;;4974601;28;20533;-72
2024/03/29 10:02:33;;;;;;;5.30;1.90;;;14.90;96.30;;;;;;4974845;28;20479;-73
2024/03/29 10:05:06;;;;;;;3.63;1.50;;;15.00;95.80;;;;;;4974450;28;20479;-72
2024/03/29 10:07:35;;;;;;;2.60;2.10;;;15.00;95.60;;;;;;4974949;28;20463;-73
2024/03/29 10:10:03;;;;;;;1.90;1.10;;;15.00;95.40;;;;;;4974786;28;20475;-72
2024/03/29 10:12:30;;;;;;;2.57;1.53;;;14.90;95.10;;;;;;4974946;28;20496;-73
2024/03/29 10:15:05;;;;;;;1.53;1.43;;;15.00;95.30;;;;;;4974537;28;20463;-73
2024/03/29 10:17:32;;;;;;;4.53;2.03;;;15.00;95.50;;;;;;4974772;28;20482;-73
2024/03/29 10:20:03;;;;;;;2.10;1.40;;;15.00;95.90;;;;;;4974562;28;20483;-72
2024/03/29 10:22:30;;;;;;;1.33;1.23;;;14.90;96.30;;;;;;4974850;28;20995;-73
2024/03/29 10:24:58;;;;;;;2.73;1.30;;;14.90;96.80;;;;;;4974369;28;20475;-72
2024/03/29 10:27:26;;;;;;;4.47;4.03;;;14.90;97.30;;;;;;4974747;28;20474;-73
2024/03/29 10:29:54;;;;;;;3.60;3.20;;;14.90;97.60;;;;;;4973964;28;20541;-72
2024/03/29 10:32:21;;;;;;;3.23;2.07;;;14.80;98.10;;;;;;4974900;28;20867;-72
2024/03/29 10:34:50;;;;;;;1.87;1.30;;;14.80;98.80;;;;;;4974266;28;20991;-72
2024/03/29 10:37:25;;;;;;;2.67;1.45;;;14.70;99.30;;;;;;4974475;28;20474;-73
2024/03/29 10:39:52;;;;;;;2.40;1.60;;;14.60;99.40;;;;;;4974023;28;20219;-72
2024/03/29 10:42:23;;;;;;;2.33;1.47;;;14.60;99.30;;;;;;4974774;28;20533;-72
2024/03/29 10:44:50;;;;;;;2.33;1.80;;;14.60;99.30;;;;;;4974149;28;20985;-72
2024/03/29 10:47:21;;;;;;;1.50;1.00;;;14.60;99.40;;;;;;4974330;28;20463;-72
2024/03/29 10:49:51;;;;;;;2.28;1.42;;;14.60;99.60;;;;;;4974250;28;20475;-73
2024/03/29 10:52:22;;;;;;;9.73;1.37;;;14.60;99.90;;;;;;4974492;28;20223;-73
2024/03/29 10:54:49;;;;;;;1.83;1.17;;;14.50;99.90;;;;;;4974031;28;20467;-73
2024/03/29 10:57:23;;;;;;;3.17;1.27;;;14.50;99.90;;;;;;4974415;28;20499;-71
2024/03/29 10:59:56;;;;;;;3.72;1.58;;;14.40;99.90;;;;;;4974046;28;20557;-72
2024/03/29 11:02:34;;;;;;;1.60;1.20;;;14.50;99.90;;;;;;4974453;28;20254;-73
2024/03/29 11:05:06;;;;;;;2.50;1.27;;;14.60;99.90;;;;;;4973845;28;20483;-73
2024/03/29 11:07:38;;;;;;;1.17;1.07;;;14.60;99.90;;;;;;4974182;28;20470;-73
2024/03/29 11:10:07;;;;;;;2.37;1.20;;;14.60;99.90;;;;;;4974069;28;20467;-72
2024/03/29 11:12:42;;;;;;;1.57;1.30;;;14.60;99.90;;;;;;4974371;28;20474;-73
2024/03/29 11:15:20;;;;;;;2.63;1.53;;;14.60;99.90;;;;;;4973723;28;20944;-72
2024/03/29 11:17:48;;;;;;;2.47;1.30;;;14.70;99.90;;;;;;4974109;28;20503;-73
2024/03/29 11:20:22;;;;;;;2.27;1.20;;;14.70;99.90;;;;;;4974108;28;20234;-73
2024/03/29 11:22:50;;;;;;;3.20;1.30;;;14.70;99.90;;;;;;4974219;28;20580;-73
2024/03/29 11:25:27;;;;;;;1.80;1.43;;;14.80;99.90;;;;;;4973913;28;20522;-72
2024/03/29 11:27:54;;;;;;;1.50;1.30;;;14.90;99.90;;;;;;4973570;28;20814;-73
2024/03/29 11:30:21;;;;;;;3.67;1.47;;;14.90;99.90;;;;;;4974082;28;20814;-73
2024/03/29 11:32:50;;;;;;;2.87;2.50;;;14.90;99.90;;;;;;4974161;28;20857;-73
2024/03/29 11:35:19;;;;;;;5.60;3.60;;;15.00;99.90;;;;;;4973612;28;20459;-73
2024/03/29 11:37:47;;;;;;;2.20;1.77;;;15.00;99.90;;;;;;4974004;28;20474;-72
2024/03/29 11:40:15;;;;;;;1.83;1.50;;;15.10;99.90;;;;;;4973514;28;20562;-72
2024/03/29 11:42:48;;;;;;;2.53;1.45;;;15.10;99.90;;;;;;4977248;28;20481;-72
2024/03/29 11:45:15;;;;;;;1.13;1.03;;;15.20;99.90;;;;;;4977309;28;20561;-72
2024/03/29 11:47:43;;;;;;;2.00;1.37;;;15.20;99.90;;;;;;4977369;28;20532;-72
2024/03/29 11:50:14;;;;;;;2.30;1.40;;;15.20;99.90;;;;;;4977043;28;20486;-73
2024/03/29 11:52:41;;;;;;;1.57;1.30;;;15.20;99.90;;;;;;4977536;28;20493;-73
2024/03/29 11:55:08;;;;;;;1.73;1.50;;;15.20;99.90;;;;;;4976970;28;20819;-72
2024/03/29 11:57:40;;;;;;;1.93;1.47;;;15.20;99.90;;;;;;4977301;28;20467;-72
2024/03/29 12:00:09;;;;;;;2.60;1.57;;;15.10;99.90;;;;;;4976910;28;20476;-72
2024/03/29 12:02:36;;;;;;;4.00;1.67;;;15.00;99.90;;;;;;4977386;28;20542;-72
2024/03/29 12:05:08;;;;;;;2.00;1.13;;;15.10;99.90;;;;;;4976643;28;20470;-72
2024/03/29 12:07:35;;;;;;;2.30;2.00;;;15.10;99.90;;;;;;4977182;28;20490;-72
2024/03/29 12:10:02;;;;;;;2.83;2.50;;;15.10;99.90;;;;;;4976772;28;20529;-72
2024/03/29 12:12:31;;;;;;;3.10;1.90;;;15.20;99.90;;;;;;4977176;28;20463;-73
2024/03/29 12:14:59;;;;;;;1.70;1.40;;;15.20;99.90;;;;;;4976726;28;20512;-73
2024/03/29 12:17:26;;;;;;;1.00;0.90;;;15.20;99.90;;;;;;4977002;28;20481;-72
2024/03/29 12:20:01;;;;;;;1.50;1.40;;;15.20;99.90;;;;;;4977073;28;20471;-72
2024/03/29 12:22:28;;;;;;;1.20;1.10;;;15.20;99.90;;;;;;4976930;28;20454;-72
2024/03/29 12:24:55;;;;;;;1.07;0.90;;;15.20;99.90;;;;;;4977146;28;20467;-72
2024/03/29 12:27:26;;;;;;;2.00;1.17;;;15.20;99.90;;;;;;4976513;28;20486;-73
2024/03/29 12:29:53;;;;;;;2.10;1.20;;;15.10;99.90;;;;;;4976969;28;20467;-72
2024/03/29 12:32:23;;;;;;;1.40;1.00;;;15.10;99.90;;;;;;4976727;28;20474;-72
2024/03/29 12:34:50;;;;;;;3.70;3.30;;;15.10;99.90;;;;;;4977014;28;20533;-72
2024/03/29 12:37:17;;;;;;;1.70;1.20;;;15.20;99.90;;;;;;4979583;28;20999;-72
2024/03/29 12:39:46;;;;;;;1.50;1.40;;;15.20;99.90;;;;;;4976866;28;20547;-73
2024/03/29 12:42:13;;;;;;;3.87;1.17;;;15.30;99.90;;;;;;4976168;28;20479;-72
2024/03/29 12:44:40;;;;;;;1.63;1.40;;;15.30;99.90;;;;;;4976696;28;20467;-72
2024/03/29 12:47:07;;;;;;;1.50;1.07;;;15.40;99.90;;;;;;4975910;28;20481;-72
2024/03/29 12:49:35;;;;;;;1.20;1.10;;;15.50;99.90;;;;;;4976461;28;20466;-72
2024/03/29 12:52:05;;;;;;;2.33;1.30;;;15.60;99.90;;;;;;4976568;28;20494;-72
2024/03/29 12:54:32;;;;;;;2.80;1.53;;;15.70;99.60;;;;;;4976154;28;20473;-71
2024/03/29 12:57:02;;;;;;;2.40;1.57;;;15.80;99.20;;;;;;4976338;28;20463;-73
2024/03/29 12:59:29;;;;;;;2.73;1.43;;;16.00;99.00;;;;;;4975983;28;20538;-73
2024/03/29 13:01:57;;;;;;;2.50;1.90;;;16.10;99.10;;;;;;4976410;28;20471;-73
2024/03/29 13:04:24;;;;;;;3.50;3.20;;;16.20;99.20;;;;;;4975501;28;20475;-70
2024/03/29 13:06:52;;;;;;;1.60;1.50;;;16.30;99.00;;;;;;4976089;28;20485;-72
2024/03/29 13:09:19;;;;;;;2.70;2.50;;;16.30;97.70;;;;;;4975645;28;20490;-71
2024/03/29 13:11:47;;;;;;;5.27;3.10;;;16.40;97.20;;;;;;4976337;28;20810;-72
2024/03/29 13:14:13;;;;;;;1.97;1.87;;;16.40;96.30;;;;;;4975743;28;20553;-72
2024/03/29 13:16:40;;;;;;;3.00;1.60;;;16.40;95.70;;;;;;4975970;28;20800;-72
2024/03/29 13:19:07;;;;;;;1.73;1.40;;;16.30;95.00;;;;;;4975923;28;20471;-72
2024/03/29 13:21:36;;;;;;;5.03;1.50;;;16.30;94.40;;;;;;4975805;28;20470;-72
2024/03/29 13:24:05;;;;;;;1.13;0.97;;;16.30;94.90;;;;;;4975846;28;20494;-72
2024/03/29 13:26:32;;;;;;;3.90;1.60;;;16.30;94.20;;;;;;4975160;28;20466;-72
2024/03/29 13:29:00;;;;;;;1.17;1.00;;;16.40;94.50;;;;;;4975717;28;20474;-72
2024/03/29 13:31:28;;;;;;;1.27;1.17;;;16.30;94.30;;;;;;4975312;28;20482;-72
2024/03/29 13:34:03;;;;;;;1.40;1.30;;;16.40;94.40;;;;;;4975846;28;20471;-72
2024/03/29 13:36:30;;;;;;;1.77;1.30;;;16.40;94.10;;;;;;4975274;28;20481;-72
2024/03/29 13:38:57;;;;;;;1.50;1.07;;;16.40;93.80;;;;;;4975704;28;20984;-72
2024/03/29 13:41:25;;;;;;;2.73;1.37;;;16.50;94.00;;;;;;4975029;28;20475;-72
2024/03/29 13:43:53;;;;;;;1.80;1.40;;;16.60;93.80;;;;;;4975471;28;20993;-72
2024/03/29 13:46:21;;;;;;;2.43;2.23;;;16.60;92.70;;;;;;4974723;28;20471;-72
2024/03/29 13:48:48;;;;;;;1.63;1.20;;;16.70;92.80;;;;;;4975461;28;20473;-72
2024/03/29 13:51:15;;;;;;;1.53;1.37;;;16.70;92.70;;;;;;4974985;28;20470;-71
2024/03/29 13:53:43;;;;;;;2.90;1.53;;;16.70;91.90;;;;;;4975407;28;20466;-71
2024/03/29 13:56:10;;;;;;;1.17;1.07;;;16.80;91.80;;;;;;4975266;28;20463;-72
2024/03/29 13:58:39;;;;;;;1.60;1.20;;;16.90;91.60;;;;;;4975113;28;20931;-71
2024/03/29 14:01:06;;;;;;;3.43;1.00;;;16.90;91.30;;;;;;4975217;28;20467;-71
2024/03/29 14:03:33;;;;;;;1.63;1.30;;;17.00;91.40;;;;;;4974037;28;20463;-72
2024/03/29 14:05:59;;;;;;;1.43;1.10;;;17.00;91.20;;;;;;4975284;28;20493;-71
2024/03/29 14:08:26;;;;;;;2.07;1.67;;;17.00;91.20;;;;;;4974482;28;20459;-71
2024/03/29 14:10:53;;;;;;;1.20;1.10;;;17.00;91.10;;;;;;4974970;28;20475;-71
2024/03/29 14:13:21;;;;;;;1.20;1.10;;;17.10;91.30;;;;;;4974585;28;20475;-71
2024/03/29 14:15:49;;;;;;;1.60;1.50;;;17.10;91.50;;;;;;4974893;28;20470;-71
2024/03/29 14:18:16;;;;;;;5.60;1.67;;;17.10;91.20;;;;;;4974491;28;20475;-71
2024/03/29 14:20:43;;;;;;;8.00;2.70;;;17.20;91.40;;;;;;4974886;28;20976;-73
2024/03/29 14:23:12;;;;;;;1.47;1.37;;;17.20;91.40;;;;;;4974969;28;20860;-73
2024/03/29 14:25:39;;;;;;;2.40;1.27;;;17.30;91.40;;;;;;4974396;28;20466;-72
2024/03/29 14:28:07;;;;;;;2.03;1.50;;;17.30;91.40;;;;;;4974862;28;20482;-72
2024/03/29 14:30:34;;;;;;;1.33;1.20;;;17.40;91.30;;;;;;4974158;28;20471;-72
2024/03/29 14:33:06;;;;;;;4.73;1.90;;;17.30;91.60;;;;;;4974860;28;20549;-72
2024/03/29 14:35:33;;;;;;;3.33;2.53;;;17.40;91.50;;;;;;4974400;28;20478;-72
2024/03/29 14:38:00;;;;;;;1.90;1.80;;;17.40;91.40;;;;;;4974699;28;21084;-72
2024/03/29 14:40:27;;;;;;;4.23;2.77;;;17.30;91.50;;;;;;4974157;28;20495;-72
2024/03/29 14:42:55;;;;;;;2.47;2.27;;;17.40;91.90;;;;;;4974585;28;20466;-72